Time;durP1;ratioP1;P1;durP2;ratioP2;P2;SDS_P1;SDS_P2;PMS_P1;PMS_P2;Temp;Humidity;BMP_temperature;BMP_pressure;BME280_temperature;BME280_humidity;BME280_pressure;Samples;Min_cycle;Max_cycle;Signal;HPM_P1;HPM_P2
2021/12/27 00:00:13;;;;;;;21.55;13.20;;;0.40;99.90;;;;;;5021311;28;20458;-71
2021/12/27 00:02:39;;;;;;;20.67;12.18;;;0.40;99.90;;;;;;5032988;28;20365;-72
2021/12/27 00:05:05;;;;;;;21.85;13.07;;;0.40;99.90;;;;;;5015863;28;20046;-71
2021/12/27 00:07:31;;;;;;;21.30;12.05;;;0.40;99.90;;;;;;5015647;28;20052;-70
2021/12/27 00:09:56;;;;;;;21.92;14.02;;;0.50;99.90;;;;;;5008889;28;20041;-72
2021/12/27 00:12:23;;;;;;;21.38;13.68;;;0.50;99.90;;;;;;4996024;28;20115;-72
2021/12/27 00:14:49;;;;;;;21.80;12.82;;;0.40;99.90;;;;;;4995583;28;20129;-71
2021/12/27 00:17:15;;;;;;;23.13;12.88;;;0.40;99.90;;;;;;4996111;28;20149;-71
2021/12/27 00:19:40;;;;;;;20.38;13.10;;;0.50;99.90;;;;;;5000635;28;20042;-71
2021/12/27 00:22:06;;;;;;;21.10;13.05;;;0.50;99.90;;;;;;5015806;28;20505;-70
2021/12/27 00:24:32;;;;;;;20.88;11.95;;;0.60;99.90;;;;;;5033353;28;20424;-72
2021/12/27 00:26:57;;;;;;;20.13;12.80;;;0.60;99.90;;;;;;5015890;28;20045;-71
2021/12/27 00:29:23;;;;;;;22.25;12.95;;;0.60;99.90;;;;;;5031150;28;20473;-72
2021/12/27 00:31:48;;;;;;;20.80;12.52;;;0.60;99.90;;;;;;4995886;28;20049;-71
2021/12/27 00:34:14;;;;;;;23.08;13.77;;;0.60;99.90;;;;;;5015474;28;20045;-71
2021/12/27 00:36:40;;;;;;;22.15;13.15;;;0.60;99.90;;;;;;5000016;28;20049;-72
2021/12/27 00:39:06;;;;;;;23.55;14.40;;;0.60;99.90;;;;;;4999516;28;20077;-71
2021/12/27 00:41:31;;;;;;;21.17;12.48;;;0.60;99.90;;;;;;5036152;28;20044;-71
2021/12/27 00:43:57;;;;;;;23.08;13.70;;;0.60;99.90;;;;;;5018906;28;20042;-72
2021/12/27 00:46:23;;;;;;;21.70;12.57;;;0.60;99.90;;;;;;5019373;28;20120;-73
2021/12/27 00:48:48;;;;;;;20.20;12.60;;;0.70;99.90;;;;;;5019343;28;20057;-72
2021/12/27 00:51:14;;;;;;;21.55;13.98;;;0.70;99.90;;;;;;5019104;28;20514;-71
2021/12/27 00:53:40;;;;;;;21.80;13.07;;;0.60;99.90;;;;;;4982729;28;20095;-72
2021/12/27 00:56:05;;;;;;;23.23;13.98;;;0.70;99.90;;;;;;5016593;28;20042;-70
2021/12/27 00:58:31;;;;;;;22.63;13.63;;;0.70;99.90;;;;;;4999174;28;20119;-71
2021/12/27 01:00:57;;;;;;;21.20;13.15;;;0.70;99.90;;;;;;5013315;28;20041;-71
2021/12/27 01:03:24;;;;;;;21.92;12.95;;;0.70;99.90;;;;;;5018648;28;20045;-71
2021/12/27 01:05:50;;;;;;;22.23;13.85;;;0.70;99.90;;;;;;5018597;28;20169;-71
2021/12/27 01:08:17;;;;;;;24.50;13.95;;;0.70;99.90;;;;;;5018928;28;20091;-71
2021/12/27 01:13:24;;;;;;;22.35;13.68;;;0.70;99.90;;;;;;4998497;28;20046;-72
2021/12/27 01:16:10;;;;;;;23.13;14.00;;;0.70;99.90;;;;;;4998262;28;20053;-71
2021/12/27 01:18:43;;;;;;;22.02;12.70;;;0.80;99.90;;;;;;4998894;28;20193;-71
2021/12/27 01:21:11;;;;;;;20.70;13.68;;;0.80;99.90;;;;;;5014446;28;20052;-72
2021/12/27 01:23:37;;;;;;;22.80;13.57;;;0.70;99.90;;;;;;5004411;28;20042;-72
2021/12/27 01:26:03;;;;;;;23.88;13.85;;;0.80;99.90;;;;;;4998939;28;20386;-72
2021/12/27 01:28:29;;;;;;;23.90;13.27;;;0.70;99.90;;;;;;4998955;28;20045;-71
2021/12/27 01:30:54;;;;;;;23.23;14.13;;;0.80;99.90;;;;;;5012317;28;20089;-72
2021/12/27 01:33:22;;;;;;;26.10;14.23;;;0.70;99.90;;;;;;5017865;28;20041;-72
2021/12/27 01:35:50;;;;;;;22.17;13.73;;;0.70;99.90;;;;;;5018035;28;20053;-72
2021/12/27 01:38:16;;;;;;;24.65;14.90;;;0.70;99.90;;;;;;5001840;28;20120;-70
2021/12/27 01:40:45;;;;;;;25.48;15.13;;;0.80;99.90;;;;;;5005763;28;20052;-73
2021/12/27 01:43:24;;;;;;;21.67;14.30;;;0.70;99.90;;;;;;5015305;28;20057;-71
2021/12/27 01:46:16;;;;;;;22.33;14.25;;;0.70;99.90;;;;;;4997341;28;20042;-71
2021/12/27 01:48:47;;;;;;;26.23;15.52;;;0.80;99.90;;;;;;4996957;28;20049;-71
2021/12/27 01:51:16;;;;;;;25.15;15.90;;;0.80;99.90;;;;;;5008696;28;20045;-72
2021/12/27 01:53:43;;;;;;;21.38;13.98;;;0.80;99.90;;;;;;5017474;28;20530;-72
2021/12/27 01:56:10;;;;;;;22.65;14.07;;;0.80;99.90;;;;;;5034862;28;20084;-71
2021/12/27 01:58:40;;;;;;;24.27;14.77;;;0.80;99.90;;;;;;5035333;28;20037;-72
2021/12/27 02:01:08;;;;;;;22.70;13.93;;;0.90;99.90;;;;;;5016698;28;20521;-72
2021/12/27 02:03:35;;;;;;;23.05;14.57;;;0.80;99.90;;;;;;5017205;28;20045;-71
2021/12/27 02:06:01;;;;;;;22.85;14.18;;;0.80;99.90;;;;;;5017353;28;20386;-72
2021/12/27 02:08:28;;;;;;;24.42;15.10;;;0.90;99.90;;;;;;5017766;28;20037;-72
2021/12/27 02:10:54;;;;;;;22.17;13.63;;;0.80;99.90;;;;;;5004258;28;20160;-72
2021/12/27 02:13:20;;;;;;;22.48;13.93;;;0.80;99.90;;;;;;5014789;28;20062;-73
2021/12/27 02:15:46;;;;;;;24.92;14.90;;;0.90;99.90;;;;;;4981171;28;20395;-72
2021/12/27 02:18:12;;;;;;;22.73;13.75;;;0.90;99.90;;;;;;5014769;28;20038;-71
2021/12/27 02:20:40;;;;;;;24.90;14.95;;;0.90;99.90;;;;;;5026279;28;20053;-72
2021/12/27 02:23:14;;;;;;;23.02;13.90;;;0.80;99.90;;;;;;4990969;28;20132;-72
2021/12/27 02:25:40;;;;;;;26.10;15.15;;;0.80;99.90;;;;;;4981399;28;20046;-72
2021/12/27 02:28:09;;;;;;;27.92;16.38;;;0.80;99.90;;;;;;5014790;28;20045;-72
2021/12/27 02:30:35;;;;;;;24.85;15.93;;;0.70;99.90;;;;;;5025491;28;20041;-72
2021/12/27 02:33:05;;;;;;;26.45;16.48;;;0.70;99.90;;;;;;5033981;28;20394;-73
2021/12/27 02:35:35;;;;;;;26.70;15.98;;;0.70;99.90;;;;;;5016797;28;20107;-72
2021/12/27 02:38:02;;;;;;;27.58;17.25;;;0.70;99.90;;;;;;5017239;28;20056;-72
2021/12/27 02:40:31;;;;;;;29.63;16.75;;;0.70;99.90;;;;;;5024383;28;20045;-71
2021/12/27 02:43:00;;;;;;;30.23;16.67;;;0.70;99.90;;;;;;5014434;28;20046;-72
2021/12/27 02:45:28;;;;;;;27.63;16.60;;;0.60;99.90;;;;;;4997503;28;20458;-72
2021/12/27 02:47:55;;;;;;;29.10;16.67;;;0.60;99.90;;;;;;4997125;28;20124;-71
2021/12/27 02:50:23;;;;;;;27.92;15.93;;;0.60;99.90;;;;;;5005930;28;20041;-72
2021/12/27 02:52:48;;;;;;;27.63;16.88;;;0.60;99.90;;;;;;5033735;28;20084;-72
2021/12/27 02:55:15;;;;;;;28.25;16.85;;;0.60;99.90;;;;;;5016327;28;20077;-73
2021/12/27 02:57:51;;;;;;;25.40;15.07;;;0.60;99.90;;;;;;5015632;28;20095;-72
2021/12/27 03:00:20;;;;;;;26.33;16.48;;;0.60;99.90;;;;;;5015477;28;20128;-72
2021/12/27 03:02:48;;;;;;;28.00;16.52;;;0.60;99.90;;;;;;5016057;28;20125;-70
2021/12/27 03:05:18;;;;;;;29.33;18.10;;;0.60;99.90;;;;;;5034042;28;20050;-70
2021/12/27 03:07:45;;;;;;;27.67;16.80;;;0.60;99.90;;;;;;5034039;28;20048;-71
2021/12/27 03:10:13;;;;;;;27.58;17.48;;;0.60;99.90;;;;;;5026493;28;20129;-72
2021/12/27 03:12:39;;;;;;;28.42;16.50;;;0.60;99.90;;;;;;4996337;28;20042;-71
2021/12/27 03:15:07;;;;;;;29.77;18.15;;;0.70;99.90;;;;;;5013589;28;20062;-71
2021/12/27 03:17:34;;;;;;;29.52;18.25;;;0.70;99.90;;;;;;5013981;28;20026;-71
2021/12/27 03:20:00;;;;;;;28.00;16.55;;;0.70;99.90;;;;;;5001980;28;20071;-72
2021/12/27 03:22:25;;;;;;;28.65;16.63;;;0.70;99.90;;;;;;5029325;28;20030;-71
2021/12/27 03:24:52;;;;;;;27.23;16.55;;;0.70;99.90;;;;;;5013640;28;20128;-71
2021/12/27 03:27:18;;;;;;;28.55;17.38;;;0.70;99.90;;;;;;4996298;28;20049;-72
2021/12/27 03:29:43;;;;;;;28.40;16.52;;;0.70;99.90;;;;;;5017137;28;20037;-71
2021/12/27 03:32:09;;;;;;;25.88;15.65;;;0.80;99.90;;;;;;5033418;28;20033;-71
2021/12/27 03:34:41;;;;;;;28.85;17.05;;;0.70;99.90;;;;;;5016378;28;20056;-71
2021/12/27 03:37:08;;;;;;;27.00;15.20;;;0.80;99.90;;;;;;5015998;28;20077;-71
2021/12/27 03:39:34;;;;;;;26.80;16.23;;;0.80;99.90;;;;;;5031441;28;20045;-71
2021/12/27 03:41:59;;;;;;;29.63;17.25;;;0.80;99.90;;;;;;5013563;28;20037;-70
2021/12/27 03:44:25;;;;;;;28.02;15.60;;;0.80;99.90;;;;;;4996323;28;20052;-72
2021/12/27 03:46:50;;;;;;;24.50;14.98;;;1.00;99.90;;;;;;4996208;28;20045;-71
2021/12/27 03:49:16;;;;;;;30.45;16.35;;;0.90;99.90;;;;;;4996407;28;20049;-71
2021/12/27 03:51:43;;;;;;;27.85;16.38;;;0.90;99.90;;;;;;5032926;28;20045;-71
2021/12/27 03:54:10;;;;;;;29.73;17.40;;;0.90;99.90;;;;;;5015763;28;20056;-71
2021/12/27 03:56:38;;;;;;;28.92;16.95;;;0.90;99.90;;;;;;5015853;28;20103;-70
2021/12/27 03:59:37;;;;;;;27.83;16.40;;;0.90;99.90;;;;;;5033539;28;20040;-70
2021/12/27 04:01:50;;;;;;;26.30;15.95;;;0.90;99.90;;;;;;5012151;28;20121;-70
2021/12/27 04:04:16;;;;;;;27.92;16.60;;;0.90;99.90;;;;;;5013203;28;20196;-70
2021/12/27 04:06:42;;;;;;;28.65;16.60;;;0.90;99.90;;;;;;5013527;28;20117;-71
2021/12/27 04:09:08;;;;;;;25.88;15.48;;;0.90;99.90;;;;;;4998355;28;20089;-70
2021/12/27 04:11:33;;;;;;;28.42;16.67;;;0.90;99.90;;;;;;5035443;28;20152;-70
2021/12/27 04:14:02;;;;;;;28.05;17.05;;;0.90;99.90;;;;;;5019267;28;20458;-70
2021/12/27 04:16:28;;;;;;;26.27;16.05;;;0.90;99.90;;;;;;5019124;28;20060;-70
2021/12/27 04:18:54;;;;;;;26.98;16.13;;;0.90;99.90;;;;;;5037039;28;20366;-70
2021/12/27 04:21:20;;;;;;;29.98;18.02;;;0.90;99.90;;;;;;5003109;28;20050;-72
2021/12/27 04:23:45;;;;;;;28.15;16.90;;;0.90;99.90;;;;;;4998272;28;20189;-72
2021/12/27 04:26:11;;;;;;;28.98;17.50;;;0.90;99.90;;;;;;5037067;28;20052;-70
2021/12/27 04:28:37;;;;;;;26.67;16.58;;;0.90;99.90;;;;;;5037069;28;20063;-71
2021/12/27 04:31:02;;;;;;;27.67;17.45;;;0.90;99.90;;;;;;5035855;28;20104;-71
2021/12/27 04:33:28;;;;;;;31.15;17.75;;;0.90;99.90;;;;;;5018749;28;20041;-71
2021/12/27 04:35:54;;;;;;;25.42;15.35;;;0.90;99.90;;;;;;5019075;28;20041;-71
2021/12/27 04:38:19;;;;;;;26.17;16.02;;;0.90;99.90;;;;;;5036683;28;20120;-70
2021/12/27 04:40:48;;;;;;;27.20;16.45;;;1.00;99.90;;;;;;5025330;28;20450;-71
2021/12/27 04:43:18;;;;;;;27.90;16.00;;;1.00;99.90;;;;;;4999294;28;20049;-71
2021/12/27 04:45:45;;;;;;;30.73;17.13;;;0.90;99.90;;;;;;4999045;28;20053;-71
2021/12/27 04:48:11;;;;;;;27.98;17.98;;;0.90;99.90;;;;;;5016866;28;20402;-70
2021/12/27 04:50:37;;;;;;;29.42;17.02;;;1.00;99.90;;;;;;4992836;28;20605;-72
2021/12/27 04:53:05;;;;;;;30.77;18.27;;;1.00;99.90;;;;;;5018812;28;20072;-73
2021/12/27 04:55:34;;;;;;;27.75;16.90;;;0.90;99.90;;;;;;5018625;28;20049;-71
2021/12/27 04:58:00;;;;;;;28.70;17.48;;;0.90;99.90;;;;;;5018668;28;20045;-70
2021/12/27 05:00:26;;;;;;;27.27;17.63;;;1.00;99.90;;;;;;5010443;28;20057;-71
2021/12/27 05:02:52;;;;;;;29.58;16.77;;;1.00;99.90;;;;;;4998541;28;20615;-70
2021/12/27 05:05:17;;;;;;;28.90;16.58;;;1.00;99.90;;;;;;4999162;28;20091;-70
2021/12/27 05:07:44;;;;;;;27.70;16.27;;;1.00;99.90;;;;;;4998869;28;20041;-70
2021/12/27 05:10:11;;;;;;;28.60;17.10;;;1.10;99.90;;;;;;5004947;28;20045;-70
2021/12/27 05:12:37;;;;;;;28.58;17.05;;;1.00;99.90;;;;;;5035810;28;20046;-70
2021/12/27 05:15:04;;;;;;;29.10;17.20;;;1.00;99.90;;;;;;5018472;28;20088;-71
2021/12/27 05:17:31;;;;;;;32.80;18.95;;;1.10;99.90;;;;;;5018474;28;20033;-69
2021/12/27 05:19:57;;;;;;;33.45;18.90;;;1.00;99.90;;;;;;5013157;28;20030;-70
2021/12/27 05:22:24;;;;;;;35.00;19.60;;;1.00;99.90;;;;;;5019782;28;20046;-71
2021/12/27 05:24:50;;;;;;;33.58;17.77;;;1.00;99.90;;;;;;5018316;28;20051;-70
2021/12/27 05:27:15;;;;;;;33.28;18.52;;;1.00;99.90;;;;;;5035652;28;20155;-70
2021/12/27 05:29:41;;;;;;;33.65;19.58;;;1.10;99.90;;;;;;5017322;28;20050;-69
2021/12/27 05:32:07;;;;;;;35.13;18.05;;;1.10;99.90;;;;;;5035221;28;20034;-70
2021/12/27 05:34:33;;;;;;;32.75;18.70;;;1.10;99.90;;;;;;5035345;28;20056;-69
2021/12/27 05:36:58;;;;;;;35.35;19.00;;;1.00;99.90;;;;;;5018202;28;20041;-69
2021/12/27 05:39:26;;;;;;;35.80;19.17;;;1.00;99.90;;;;;;5035454;28;20043;-70
2021/12/27 05:41:52;;;;;;;35.55;19.88;;;1.00;99.90;;;;;;5017406;28;20110;-68
2021/12/27 05:44:18;;;;;;;35.03;19.50;;;1.00;99.90;;;;;;5035597;28;20072;-70
2021/12/27 05:46:44;;;;;;;35.50;20.02;;;1.10;99.90;;;;;;5001743;28;20045;-69
2021/12/27 05:49:10;;;;;;;37.80;20.85;;;1.10;99.90;;;;;;5035374;28;20525;-69
2021/12/27 05:51:41;;;;;;;34.13;19.77;;;1.00;99.90;;;;;;4999766;28;20045;-70
2021/12/27 05:54:07;;;;;;;36.80;18.42;;;1.10;99.90;;;;;;5015432;28;20100;-70
2021/12/27 05:56:33;;;;;;;35.22;19.40;;;1.10;99.90;;;;;;5015684;28;20136;-70
2021/12/27 05:58:58;;;;;;;39.97;19.92;;;1.10;99.90;;;;;;5015445;28;20515;-70
2021/12/27 06:01:24;;;;;;;33.60;18.35;;;1.10;99.90;;;;;;5031149;28;20083;-70
2021/12/27 06:03:50;;;;;;;36.30;19.63;;;1.10;99.90;;;;;;5001043;28;20386;-69
2021/12/27 06:06:16;;;;;;;38.53;20.45;;;1.10;99.90;;;;;;5034849;28;20052;-70
2021/12/27 06:08:42;;;;;;;32.72;18.67;;;1.10;99.90;;;;;;5034720;28;20049;-69
2021/12/27 06:11:08;;;;;;;34.05;18.58;;;1.10;99.90;;;;;;5021010;28;20041;-68
2021/12/27 06:13:33;;;;;;;38.05;18.80;;;1.10;99.90;;;;;;4997381;28;20050;-69
2021/12/27 06:15:59;;;;;;;38.58;19.85;;;1.20;99.90;;;;;;5014671;28;20046;-69
2021/12/27 06:18:26;;;;;;;35.67;19.50;;;1.20;99.90;;;;;;5015166;28;20121;-69
2021/12/27 06:20:51;;;;;;;39.45;20.60;;;1.10;99.90;;;;;;5008493;28;20103;-69
2021/12/27 06:23:17;;;;;;;42.35;21.60;;;1.20;99.90;;;;;;5005590;28;20045;-69
2021/12/27 06:25:45;;;;;;;35.85;18.50;;;1.20;99.90;;;;;;5015041;28;20060;-70
2021/12/27 06:28:11;;;;;;;46.75;21.10;;;1.10;99.90;;;;;;4997439;28;20092;-68
2021/12/27 06:30:37;;;;;;;43.90;21.17;;;1.20;99.90;;;;;;5006024;28;20116;-68
2021/12/27 06:33:06;;;;;;;44.88;20.58;;;1.10;99.90;;;;;;5034167;28;20124;-69
2021/12/27 06:35:33;;;;;;;52.47;23.08;;;1.20;99.90;;;;;;5017238;28;20044;-68
2021/12/27 06:37:58;;;;;;;53.55;22.20;;;1.10;99.90;;;;;;5017189;28;20327;-68
2021/12/27 06:40:24;;;;;;;56.33;21.80;;;1.20;99.90;;;;;;5026783;28;20056;-68
2021/12/27 06:42:50;;;;;;;59.15;22.63;;;1.20;99.90;;;;;;5014340;28;20040;-68
2021/12/27 06:45:16;;;;;;;75.03;25.42;;;1.20;99.90;;;;;;5014479;28;20125;-69
2021/12/27 06:47:43;;;;;;;56.78;22.38;;;1.20;99.90;;;;;;5014431;28;20053;-68
2021/12/27 06:50:10;;;;;;;62.10;22.48;;;1.10;99.90;;;;;;5019321;28;20469;-68
2021/12/27 06:52:38;;;;;;;56.50;22.08;;;1.20;99.90;;;;;;5034045;28;20088;-68
2021/12/27 06:55:05;;;;;;;59.80;22.85;;;1.10;99.90;;;;;;5034256;28;20064;-68
2021/12/27 06:57:31;;;;;;;73.20;25.05;;;1.20;99.90;;;;;;5034285;28;20113;-68
2021/12/27 06:59:58;;;;;;;87.15;27.63;;;1.20;99.90;;;;;;5030521;28;20132;-67
2021/12/27 07:02:24;;;;;;;69.80;23.67;;;1.20;99.90;;;;;;4996768;28;20073;-68
2021/12/27 07:04:49;;;;;;;80.07;24.70;;;1.20;99.90;;;;;;5014443;28;20084;-68
2021/12/27 07:07:15;;;;;;;66.85;23.65;;;1.20;99.90;;;;;;5014321;28;20081;-68
2021/12/27 07:09:41;;;;;;;73.63;24.20;;;1.20;99.90;;;;;;5015523;28;20038;-67
2021/12/27 07:12:07;;;;;;;72.00;24.63;;;1.20;99.90;;;;;;5016049;28;20060;-67
2021/12/27 07:14:33;;;;;;;85.57;25.23;;;1.30;99.90;;;;;;5033693;28;20073;-67
2021/12/27 07:16:59;;;;;;;75.78;24.73;;;1.20;99.90;;;;;;5033635;28;20128;-68
2021/12/27 07:19:25;;;;;;;71.28;25.73;;;1.30;99.90;;;;;;5033969;28;20412;-68
2021/12/27 07:21:50;;;;;;;72.78;25.90;;;1.20;99.90;;;;;;5014557;28;20447;-67
2021/12/27 07:24:16;;;;;;;75.88;24.17;;;1.20;99.90;;;;;;5032910;28;20030;-68
2021/12/27 07:26:42;;;;;;;69.05;25.55;;;1.30;99.90;;;;;;5033815;28;20041;-67
2021/12/27 07:29:09;;;;;;;61.80;24.30;;;1.30;99.90;;;;;;5033776;28;20038;-68
2021/12/27 07:31:34;;;;;;;84.30;25.17;;;1.30;99.90;;;;;;5016594;28;20034;-67
2021/12/27 07:34:01;;;;;;;68.57;23.92;;;1.30;99.90;;;;;;5014049;28;20048;-68
2021/12/27 07:36:29;;;;;;;88.63;26.15;;;1.30;99.90;;;;;;5013886;28;20053;-68
2021/12/27 07:38:54;;;;;;;91.47;25.23;;;1.30;99.90;;;;;;5014059;28;20104;-68
2021/12/27 07:41:20;;;;;;;82.85;24.40;;;1.30;99.90;;;;;;5010745;28;20049;-66
2021/12/27 07:43:46;;;;;;;61.60;20.50;;;1.30;99.90;;;;;;5037248;28;20480;-67
2021/12/27 07:46:11;;;;;;;69.65;23.42;;;1.40;99.90;;;;;;5024611;28;20052;-66
2021/12/27 07:48:39;;;;;;;75.00;25.30;;;1.50;99.90;;;;;;5019617;28;20046;-67
2021/12/27 07:51:04;;;;;;;72.80;24.98;;;1.40;99.90;;;;;;5020226;28;20249;-68
2021/12/27 07:53:30;;;;;;;82.00;23.20;;;1.50;99.90;;;;;;5012563;28;20037;-67
2021/12/27 07:55:56;;;;;;;52.42;20.88;;;1.50;99.90;;;;;;5025110;28;20100;-67
2021/12/27 07:58:21;;;;;;;65.68;22.75;;;1.40;99.90;;;;;;5019919;28;20033;-67
2021/12/27 08:00:50;;;;;;;77.05;24.00;;;1.50;99.90;;;;;;5029878;28;20041;-68
2021/12/27 08:03:17;;;;;;;73.32;24.02;;;1.40;99.90;;;;;;5039732;28;20073;-67
2021/12/27 08:05:43;;;;;;;81.43;25.05;;;1.50;99.90;;;;;;5030402;28;20366;-69
2021/12/27 08:08:08;;;;;;;71.80;24.58;;;1.50;99.90;;;;;;5019399;28;20049;-69
2021/12/27 08:10:34;;;;;;;79.38;24.15;;;1.50;99.90;;;;;;5020930;28;20038;-68
2021/12/27 08:13:01;;;;;;;61.95;23.00;;;1.50;99.90;;;;;;5019032;28;20055;-68
2021/12/27 08:15:27;;;;;;;65.00;22.55;;;1.50;99.90;;;;;;5023664;28;20045;-69
2021/12/27 08:17:52;;;;;;;66.32;24.08;;;1.50;99.90;;;;;;5003591;28;20107;-69
2021/12/27 08:20:18;;;;;;;62.35;21.05;;;1.50;99.90;;;;;;5025649;28;20038;-69
2021/12/27 08:22:44;;;;;;;68.68;21.33;;;1.50;99.90;;;;;;5015360;28;20037;-69
2021/12/27 08:25:10;;;;;;;51.35;18.65;;;1.60;99.90;;;;;;5019938;28;20112;-68
2021/12/27 08:27:38;;;;;;;55.05;21.67;;;1.60;99.90;;;;;;5025029;28;20103;-69
2021/12/27 08:30:05;;;;;;;60.00;21.25;;;1.60;99.90;;;;;;5024000;28;20664;-69
2021/12/27 08:32:32;;;;;;;60.65;21.67;;;1.60;99.90;;;;;;5024615;28;20044;-69
2021/12/27 08:35:01;;;;;;;66.60;21.92;;;1.70;99.90;;;;;;5034660;28;20045;-70
2021/12/27 08:37:28;;;;;;;71.78;22.88;;;1.70;99.90;;;;;;5039509;28;20091;-69
2021/12/27 08:39:53;;;;;;;69.95;22.10;;;1.70;99.90;;;;;;5035948;28;20041;-69
2021/12/27 08:42:19;;;;;;;85.22;22.77;;;1.70;99.90;;;;;;5039168;28;20457;-69
2021/12/27 08:44:45;;;;;;;91.35;23.00;;;1.80;99.90;;;;;;5022064;28;20128;-69
2021/12/27 08:47:12;;;;;;;97.60;25.77;;;1.80;99.90;;;;;;5038959;28;20446;-69
2021/12/27 08:49:41;;;;;;;93.00;24.52;;;1.80;99.90;;;;;;5036200;28;20112;-69
2021/12/27 08:52:07;;;;;;;93.65;23.67;;;1.80;99.90;;;;;;5038231;28;20041;-71
2021/12/27 08:54:34;;;;;;;83.45;23.45;;;1.90;99.90;;;;;;5035547;28;20125;-70
2021/12/27 08:57:03;;;;;;;128.00;27.77;;;1.90;99.90;;;;;;5036085;28;20033;-69
2021/12/27 08:59:28;;;;;;;147.98;27.45;;;1.90;99.90;;;;;;5036069;28;20042;-68
2021/12/27 09:01:54;;;;;;;100.05;24.08;;;1.80;99.90;;;;;;5031099;28;20036;-69
2021/12/27 09:04:20;;;;;;;71.18;22.40;;;1.90;99.90;;;;;;5012625;28;20045;-68
2021/12/27 09:06:45;;;;;;;121.32;26.77;;;1.90;99.90;;;;;;5035078;28;20115;-69
2021/12/27 09:09:12;;;;;;;91.97;25.30;;;1.90;99.90;;;;;;5030398;28;20040;-69
2021/12/27 09:11:38;;;;;;;109.38;25.58;;;2.00;99.90;;;;;;5026566;28;20056;-69
2021/12/27 09:14:04;;;;;;;89.95;24.85;;;1.90;99.90;;;;;;5036223;28;20033;-69
2021/12/27 09:16:29;;;;;;;80.70;23.63;;;2.00;99.90;;;;;;5035016;28;20517;-70
2021/12/27 09:18:55;;;;;;;106.10;25.20;;;2.00;99.90;;;;;;5018003;28;20073;-68
2021/12/27 09:21:20;;;;;;;92.07;24.20;;;2.10;99.90;;;;;;5034192;28;20037;-69
2021/12/27 09:23:46;;;;;;;97.00;23.88;;;2.10;99.90;;;;;;5032778;28;20022;-69
2021/12/27 09:26:12;;;;;;;123.82;26.98;;;2.20;99.90;;;;;;5018080;28;20400;-69
2021/12/27 09:28:37;;;;;;;129.90;27.88;;;2.20;99.90;;;;;;5035306;28;20038;-69
2021/12/27 09:31:04;;;;;;;103.65;24.95;;;2.20;99.90;;;;;;5016708;28;20049;-69
2021/12/27 09:33:30;;;;;;;103.20;25.65;;;2.30;99.90;;;;;;5031977;28;20060;-69
2021/12/27 09:35:57;;;;;;;138.95;27.10;;;2.30;99.90;;;;;;5035596;28;20136;-69
2021/12/27 09:38:23;;;;;;;128.55;26.23;;;2.30;99.90;;;;;;5035615;28;20037;-69
2021/12/27 09:40:49;;;;;;;92.93;23.90;;;2.30;99.90;;;;;;5034402;28;20080;-71
2021/12/27 09:43:14;;;;;;;118.15;26.35;;;2.30;99.90;;;;;;5034432;28;20112;-68
2021/12/27 09:45:40;;;;;;;103.70;25.08;;;2.40;99.90;;;;;;5034649;28;20045;-68
2021/12/27 09:48:09;;;;;;;136.20;26.80;;;2.40;99.90;;;;;;5025299;28;20042;-70
2021/12/27 09:50:40;;;;;;;97.93;26.15;;;2.40;99.90;;;;;;5005530;28;20033;-69
2021/12/27 09:53:08;;;;;;;84.65;24.85;;;2.40;99.90;;;;;;5033900;28;20049;-70
2021/12/27 09:55:34;;;;;;;84.03;23.95;;;2.40;99.90;;;;;;5033952;28;20064;-68
2021/12/27 09:58:00;;;;;;;128.63;26.42;;;2.50;99.90;;;;;;5034498;28;20393;-72
2021/12/27 10:00:27;;;;;;;107.00;26.05;;;2.50;99.90;;;;;;5016732;28;20040;-70
2021/12/27 10:02:54;;;;;;;123.57;26.20;;;2.60;99.90;;;;;;5034468;28;20112;-69
2021/12/27 10:05:22;;;;;;;111.43;26.92;;;2.60;99.90;;;;;;5035225;28;20347;-69
2021/12/27 10:07:48;;;;;;;141.25;29.25;;;2.60;99.90;;;;;;5026856;28;20046;-69
2021/12/27 10:10:14;;;;;;;122.72;27.83;;;2.70;99.90;;;;;;5012654;28;20041;-68
2021/12/27 10:12:41;;;;;;;106.03;25.58;;;2.70;99.90;;;;;;5026527;28;20080;-69
2021/12/27 10:15:15;;;;;;;106.35;27.77;;;2.70;99.90;;;;;;5033486;28;20049;-69
2021/12/27 10:17:42;;;;;;;95.45;25.50;;;2.80;99.90;;;;;;5034661;28;20044;-69
2021/12/27 10:20:18;;;;;;;95.28;27.98;;;2.80;99.90;;;;;;5014388;28;20064;-69
2021/12/27 10:22:49;;;;;;;89.25;25.88;;;2.80;99.90;;;;;;5026448;28;20044;-69
2021/12/27 10:25:20;;;;;;;92.60;25.75;;;2.80;99.90;;;;;;5013375;28;20408;-68
2021/12/27 10:27:47;;;;;;;73.93;23.45;;;2.90;99.90;;;;;;5013865;28;20100;-70
2021/12/27 10:30:19;;;;;;;71.32;24.88;;;2.90;99.90;;;;;;5000125;28;20048;-70
2021/12/27 10:33:03;;;;;;;110.80;27.73;;;3.10;99.90;;;;;;5033325;28;20042;-69
2021/12/27 10:35:37;;;;;;;98.18;25.33;;;3.10;99.90;;;;;;5034307;28;20430;-68
2021/12/27 10:38:22;;;;;;;121.97;27.63;;;3.20;99.90;;;;;;5034730;28;20210;-70
2021/12/27 10:40:58;;;;;;;121.75;27.90;;;3.20;99.90;;;;;;5025662;28;20180;-69
2021/12/27 10:43:40;;;;;;;89.20;25.67;;;3.20;99.90;;;;;;5001580;28;20049;-69
2021/12/27 10:46:08;;;;;;;119.10;26.95;;;3.30;99.90;;;;;;5022980;28;20055;-68
2021/12/27 10:48:43;;;;;;;132.63;30.73;;;3.30;99.90;;;;;;5014569;28;20041;-69
2021/12/27 10:51:09;;;;;;;107.68;26.67;;;3.40;99.90;;;;;;5021752;28;20037;-69
2021/12/27 10:53:46;;;;;;;97.70;27.65;;;3.30;99.90;;;;;;5016660;28;20107;-69
2021/12/27 10:56:12;;;;;;;103.20;24.63;;;3.40;99.90;;;;;;5034166;28;20048;-67
2021/12/27 10:58:49;;;;;;;110.97;27.30;;;3.40;99.90;;;;;;5033574;28;20030;-67
2021/12/27 11:01:19;;;;;;;96.35;28.15;;;3.40;99.90;;;;;;5029626;28;20189;-67
2021/12/27 11:03:50;;;;;;;98.68;23.95;;;3.40;99.90;;;;;;5035096;28;20038;-67
2021/12/27 11:06:22;;;;;;;105.45;26.25;;;3.40;99.90;;;;;;5034004;28;20120;-67
2021/12/27 11:08:48;;;;;;;97.82;27.17;;;3.40;99.90;;;;;;5016142;28;20766;-68
2021/12/27 11:11:15;;;;;;;71.75;24.98;;;3.40;99.90;;;;;;5015149;28;20045;-67
2021/12/27 11:13:42;;;;;;;129.02;28.17;;;3.30;99.90;;;;;;5033548;28;20102;-67
2021/12/27 11:16:09;;;;;;;159.43;29.70;;;3.30;99.90;;;;;;5033084;28;20136;-68
2021/12/27 11:18:35;;;;;;;98.45;27.48;;;3.40;99.90;;;;;;5015244;28;20037;-67
2021/12/27 11:21:14;;;;;;;114.47;31.13;;;3.40;99.90;;;;;;5038770;28;20044;-67
2021/12/27 11:23:41;;;;;;;115.00;30.10;;;3.50;99.90;;;;;;5031203;28;20044;-68
2021/12/27 11:26:13;;;;;;;120.95;30.95;;;3.50;99.90;;;;;;5032880;28;20463;-67
2021/12/27 11:28:41;;;;;;;111.97;29.63;;;3.50;99.90;;;;;;5032987;28;20053;-67
2021/12/27 11:31:13;;;;;;;122.47;29.50;;;3.50;99.90;;;;;;5014836;28;20049;-67
2021/12/27 11:33:58;;;;;;;117.28;28.85;;;3.60;99.90;;;;;;5032996;28;20374;-67
2021/12/27 11:36:33;;;;;;;110.57;29.40;;;3.60;99.90;;;;;;5033138;28;20044;-67
2021/12/27 11:39:16;;;;;;;129.35;30.60;;;3.60;99.90;;;;;;5032733;28;20034;-66
2021/12/27 11:41:42;;;;;;;131.50;32.35;;;3.60;99.90;;;;;;5014844;28;20120;-67
2021/12/27 11:44:17;;;;;;;130.02;32.47;;;3.60;99.90;;;;;;5033400;28;20034;-68
2021/12/27 11:46:48;;;;;;;100.75;29.33;;;3.70;99.90;;;;;;5033146;28;20041;-67
2021/12/27 11:49:15;;;;;;;105.30;29.20;;;3.70;99.90;;;;;;5015681;28;20490;-67
2021/12/27 11:51:42;;;;;;;130.95;31.45;;;3.70;99.90;;;;;;5031623;28;20112;-67
2021/12/27 11:54:34;;;;;;;86.95;27.25;;;3.70;99.90;;;;;;5033624;28;21320;-66
2021/12/27 11:57:00;;;;;;;94.53;29.92;;;3.70;99.90;;;;;;5016523;28;20048;-66
2021/12/27 11:59:25;;;;;;;123.60;32.97;;;3.70;99.90;;;;;;5037248;28;20458;-66
2021/12/27 12:02:00;;;;;;;104.88;30.90;;;3.70;99.90;;;;;;5020013;28;20049;-65
2021/12/27 12:04:46;;;;;;;114.32;33.65;;;3.70;99.90;;;;;;5027013;28;20029;-67
2021/12/27 12:07:32;;;;;;;109.18;30.63;;;3.70;99.90;;;;;;5032432;28;20053;-67
2021/12/27 12:09:58;;;;;;;107.32;30.70;;;3.70;99.90;;;;;;4996527;28;20045;-66
2021/12/27 12:12:26;;;;;;;99.22;30.20;;;3.70;99.90;;;;;;5032608;28;20069;-66
2021/12/27 12:15:01;;;;;;;86.10;29.30;;;3.80;99.90;;;;;;5032191;28;20053;-65
2021/12/27 12:17:43;;;;;;;77.25;28.55;;;3.80;99.90;;;;;;5032907;28;20045;-67
2021/12/27 12:20:35;;;;;;;100.25;32.17;;;3.90;99.90;;;;;;5032061;28;20500;-68
2021/12/27 12:23:09;;;;;;;89.15;31.13;;;3.90;99.90;;;;;;5023866;28;20065;-66
2021/12/27 12:25:35;;;;;;;;;;;4.10;99.90;;;;;;5013916;28;20117;-66
2021/12/27 12:28:07;;;;;;;86.38;28.52;;;4.20;99.90;;;;;;5027960;28;20350;-64
2021/12/27 12:30:36;;;;;;;71.40;29.48;;;4.30;99.90;;;;;;5034814;28;20409;-67
2021/12/27 12:33:12;;;;;;;84.00;31.05;;;4.40;99.90;;;;;;5017312;28;20068;-66
2021/12/27 12:35:44;;;;;;;69.93;29.70;;;4.40;99.90;;;;;;5035673;28;20033;-68
2021/12/27 12:38:33;;;;;;;68.63;28.38;;;4.50;99.90;;;;;;5035063;28;20045;-67
2021/12/27 12:41:09;;;;;;;62.05;27.63;;;4.40;99.90;;;;;;5034644;28;20362;-67